Newbury Park, CA (91320)

7:32 AM PDT on August 26, 2016 (GMT -0700)
Mayfield Street | | Change Station

Elev 729 ft 34.18 °N, 118.96 °W | Updated 3 minutes ago

Haze
Haze
59.6 °F
Feels Like 59.6 °F
N
0.0
Wind Variable Wind from South
Gusts 0.0 mph

Today
High -- | Low -- °F
--% Chance of Precip.
Yesterday
High -- | Low -- °F
Precip. -- in
Pressure 29.96 in
Visibility 6.0 miles
Clouds Overcast 2600 ft
Dew Point 58 °F
Humidity 94%
Rainfall 0.00 in
Snow Depth Not available.
6:25 AM 7:28 PM
Waning Crescent, 34% visible
METAR KCMA 261355Z 00000KT 6SM HZ OVC026 18/15 A2994 RMK AO2 SLP146 T01780150
Pressure 29.96 in
Visibility 6.0 miles
Clouds Overcast 2600 ft
Dew Point 58 °F
Humidity 94%
Rainfall 0.00 in
Snow Depth Not available.
6:25 AM 7:28 PM
Waning Crescent, 34% visible
METAR KCMA 261355Z 00000KT 6SM HZ OVC026 18/15 A2994 RMK AO2 SLP146 T01780150

10-Day Weather Forecast

Almanac

Astronomy

Aug. 26, 2016 Rise Set
Actual Time
Civil Twilight
Nautical Twilight
Astronomical Twilight
Moon
Length of Visible Light
Length of Day
Tomorrow will be .
, % of the Moon is Illuminated

Today's Extremes

State Highs State Lows

Community

WunderPhotos

Upload Photos

1,935,089 photos uploaded!

WunderBlog® & News

Nearby

Air Quality

  Air Quality AQ Index Pollutant
Not available.

Snow Depth

Station Depth Elevation

Earthquake Activity

City Distance Mag. Time & Date
Minimum magnitude displayed is 2.5.

Coastal Water Temperatures

Place Temperature

Stations

Nearby Weather Stations

Station Location Temp. Windchill Dew Point Humidity Wind Precip. Elev Updated Type
                   

Watches & Warnings

There are currently no watches in effect.